Observation data for Plains on 08/14/2019      Previous  Date  Next       Current Mesonet Observations  Soil Data  Daily Summary Page  Observations in Plain Language
KPPS 140500Z 07008KT 26/17 A3015 RMK A01 T02600166  RH  059%=      5-min Rain = 0
KPPS 140505Z 07008KT 26/17 A3015 RMK A01 T02580166  RH  060%=      5-min Rain = 0
KPPS 140510Z 07008KT 26/17 A3014 RMK A01 T02580166  RH  060%=      5-min Rain = 0
KPPS 140515Z 07008KT 26/17 A3014 RMK A01 T02570166  RH  060%=      5-min Rain = 0
KPPS 140520Z 07007KT 25/17 A3015 RMK A01 T02540167  RH  061%=      5-min Rain = 0
KPPS 140525Z 09007KT 25/17 A3015 RMK A01 T02530167  RH  062%=      5-min Rain = 0
KPPS 140530Z 09008KT 25/17 A3015 RMK A01 T02530167  RH  062%=      5-min Rain = 0
KPPS 140535Z 08007KT 25/17 A3016 RMK A01 T02520167  RH  062%=      5-min Rain = 0
KPPS 140540Z 08007KT 25/17 A3016 RMK A01 T02500167  RH  063%=      5-min Rain = 0
KPPS 140545Z 08007KT 25/17 A3016 RMK A01 T02490166  RH  063%=      5-min Rain = 0
KPPS 140550Z 08007KT 25/17 A3016 RMK A01 T02480166  RH  064%=      5-min Rain = 0
KPPS 140555Z 08007KT 25/17 A3016 RMK A01 T02470166  RH  064%=      5-min Rain = 0
KPPS 140600Z 08008KT 25/17 A3016 RMK A01 T02460167  RH  064%=      5-min Rain = 0
KPPS 140605Z 08009KT 25/17 A3016 RMK A01 T02470167  RH  064%=      5-min Rain = 0
KPPS 140610Z 08009KT 25/17 A3016 RMK A01 T02490168  RH  064%=      5-min Rain = 0
KPPS 140615Z 07008KT 25/17 A3016 RMK A01 T02480168  RH  064%=      5-min Rain = 0
KPPS 140620Z 06007KT 25/17 A3016 RMK A01 T02450168  RH  065%=      5-min Rain = 0
KPPS 140625Z 07007KT 24/17 A3016 RMK A01 T02430168  RH  066%=      5-min Rain = 0
KPPS 140630Z 09007KT 24/17 A3015 RMK A01 T02420169  RH  067%=      5-min Rain = 0
KPPS 140635Z 09007KT 25/17 A3015 RMK A01 T02450169  RH  066%=      5-min Rain = 0
KPPS 140640Z 09008KT 25/17 A3015 RMK A01 T02460169  RH  065%=      5-min Rain = 0
KPPS 140645Z 08008KT 25/17 A3015 RMK A01 T02450169  RH  066%=      5-min Rain = 0
KPPS 140650Z 09008KT 24/17 A3015 RMK A01 T02440169  RH  066%=      5-min Rain = 0
KPPS 140655Z 09008KT 24/17 A3015 RMK A01 T02440170  RH  066%=      5-min Rain = 0
KPPS 140700Z 09008KT 24/17 A3015 RMK A01 T02440170  RH  067%=      5-min Rain = 0
KPPS 140705Z 08008KT 24/17 A3015 RMK A01 T02430170  RH  067%=      5-min Rain = 0
KPPS 140710Z 08007KT 24/17 A3015 RMK A01 T02410170  RH  068%=      5-min Rain = 0
KPPS 140715Z 09007KT 24/17 A3015 RMK A01 T02400170  RH  068%=      5-min Rain = 0
KPPS 140720Z 09006KT 24/17 A3015 RMK A01 T02390170  RH  069%=      5-min Rain = 0
KPPS 140725Z 09006KT 24/17 A3015 RMK A01 T02390171  RH  069%=      5-min Rain = 0
KPPS 140730Z 09007KT 24/17 A3015 RMK A01 T02370170  RH  070%=      5-min Rain = 0
KPPS 140735Z 08007KT 24/17 A3015 RMK A01 T02360170  RH  070%=      5-min Rain = 0
KPPS 140740Z 08007KT 23/17 A3015 RMK A01 T02320170  RH  071%=      5-min Rain = 0
KPPS 140745Z 08007KT 23/17 A3016 RMK A01 T02300170  RH  073%=      5-min Rain = 0
KPPS 140750Z 08007KT 23/17 A3016 RMK A01 T02300170  RH  073%=      5-min Rain = 0
KPPS 140755Z 08007KT 23/17 A3016 RMK A01 T02290171  RH  073%=      5-min Rain = 0
KPPS 140800Z 07007KT 23/17 A3016 RMK A01 T02280171  RH  074%=      5-min Rain = 0
KPPS 140805Z 07006KT 23/17 A3016 RMK A01 T02260170  RH  074%=      5-min Rain = 0
KPPS 140810Z 07006KT 23/17 A3015 RMK A01 T02250170  RH  075%=      5-min Rain = 0
KPPS 140815Z 07007KT 23/17 A3015 RMK A01 T02250170  RH  074%=      5-min Rain = 0
KPPS 140820Z 07008KT 23/17 A3015 RMK A01 T02260171  RH  074%=      5-min Rain = 0
KPPS 140825Z 07008KT 23/17 A3015 RMK A01 T02270171  RH  074%=      5-min Rain = 0
KPPS 140830Z 06009KT 23/17 A3015 RMK A01 T02270171  RH  074%=      5-min Rain = 0
KPPS 140835Z 06009KT 23/17 A3015 RMK A01 T02280171  RH  074%=      5-min Rain = 0
KPPS 140840Z 06010KT 23/17 A3016 RMK A01 T02270171  RH  074%=      5-min Rain = 0
KPPS 140845Z 07010KT 23/17 A3015 RMK A01 T02270171  RH  074%=      5-min Rain = 0
KPPS 140850Z 07009KT 23/17 A3016 RMK A01 T02280171  RH  074%=      5-min Rain = 0
KPPS 140855Z 06010KT 23/17 A3016 RMK A01 T02280170  RH  074%=      5-min Rain = 0
KPPS 140900Z 06010KT 23/17 A3016 RMK A01 T02290171  RH  073%=      5-min Rain = 0
KPPS 140905Z 06009KT 23/17 A3016 RMK A01 T02270171  RH  074%=      5-min Rain = 0
KPPS 140910Z 06009KT 23/17 A3016 RMK A01 T02260171  RH  075%=      5-min Rain = 0
KPPS 140915Z 07010KT 23/17 A3016 RMK A01 T02260171  RH  075%=      5-min Rain = 0
KPPS 140920Z 06009KT 23/17 A3016 RMK A01 T02250171  RH  075%=      5-min Rain = 0
KPPS 140925Z 07009KT 22/17 A3016 RMK A01 T02240171  RH  076%=      5-min Rain = 0
KPPS 140930Z 07009KT 22/17 A3015 RMK A01 T02240172  RH  076%=      5-min Rain = 0
KPPS 140935Z 07008KT 22/17 A3015 RMK A01 T02230172  RH  077%=      5-min Rain = 0
KPPS 140940Z 07009KT 22/17 A3015 RMK A01 T02230172  RH  077%=      5-min Rain = 0
KPPS 140945Z 07009KT 22/17 A3015 RMK A01 T02230173  RH  077%=      5-min Rain = 0
KPPS 140950Z 07009KT 22/17 A3015 RMK A01 T02220173  RH  077%=      5-min Rain = 0
KPPS 140955Z 06008KT 22/17 A3015 RMK A01 T02220173  RH  078%=      5-min Rain = 0
KPPS 141000Z 06008KT 22/17 A3015 RMK A01 T02200173  RH  078%=      5-min Rain = 0
KPPS 141005Z 05008KT 22/17 A3015 RMK A01 T02200172  RH  078%=      5-min Rain = 0
KPPS 141010Z 06008KT 22/17 A3016 RMK A01 T02200172  RH  078%=      5-min Rain = 0
KPPS 141015Z 05008KT 22/17 A3016 RMK A01 T02190171  RH  078%=      5-min Rain = 0
KPPS 141020Z 05007KT 22/17 A3016 RMK A01 T02180170  RH  078%=      5-min Rain = 0
KPPS 141025Z 05007KT 22/17 A3016 RMK A01 T02160170  RH  079%=      5-min Rain = 0
KPPS 141030Z 05007KT 22/17 A3016 RMK A01 T02150170  RH  079%=      5-min Rain = 0
KPPS 141035Z 05006KT 21/17 A3016 RMK A01 T02140170  RH  080%=      5-min Rain = 0
KPPS 141040Z 05007KT 21/17 A3017 RMK A01 T02130170  RH  080%=      5-min Rain = 0
KPPS 141045Z 05007KT 21/17 A3017 RMK A01 T02130170  RH  080%=      5-min Rain = 0
KPPS 141050Z 05008KT 21/17 A3017 RMK A01 T02130170  RH  081%=      5-min Rain = 0
KPPS 141055Z 05008KT 21/17 A3017 RMK A01 T02130171  RH  081%=      5-min Rain = 0
KPPS 141100Z 05008KT 21/17 A3017 RMK A01 T02130171  RH  081%=      5-min Rain = 0
KPPS 141105Z 05008KT 21/17 A3017 RMK A01 T02130171  RH  081%=      5-min Rain = 0
KPPS 141110Z 05009KT 21/17 A3017 RMK A01 T02120171  RH  081%=      5-min Rain = 0
KPPS 141115Z 05010KT 21/17 A3017 RMK A01 T02130171  RH  081%=      5-min Rain = 0
KPPS 141120Z 06009KT 21/17 A3017 RMK A01 T02140172  RH  081%=      5-min Rain = 0
KPPS 141125Z 05009KT 21/17 A3017 RMK A01 T02140172  RH  081%=      5-min Rain = 0
KPPS 141130Z 04008KT 21/17 A3018 RMK A01 T02130171  RH  081%=      5-min Rain = 0
KPPS 141135Z 04009KT 21/17 A3018 RMK A01 T02120171  RH  082%=      5-min Rain = 0
KPPS 141140Z 04009KT 21/17 A3018 RMK A01 T02110171  RH  082%=      5-min Rain = 0
KPPS 141145Z 04009KT 21/17 A3018 RMK A01 T02100171  RH  082%=      5-min Rain = 0
KPPS 141150Z 04008KT 21/17 A3019 RMK A01 T02100171  RH  082%=      5-min Rain = 0
KPPS 141155Z 04009KT 21/17 A3019 RMK A01 T02100171  RH  082%=      5-min Rain = 0
KPPS 141200Z 04011KT 21/17 A3019 RMK A01 T02110171  RH  082%=      5-min Rain = 0
KPPS 141205Z 04009KT 21/17 A3019 RMK A01 T02120171  RH  081%=      5-min Rain = 0
KPPS 141210Z 04011KT 21/17 A302 RMK A01 T02130171  RH  081%=      5-min Rain = 0
KPPS 141215Z 04012KT 21/17 A302 RMK A01 T02130172  RH  081%=      5-min Rain = 0
KPPS 141220Z 05013KT 21/17 A302 RMK A01 T02140172  RH  081%=      5-min Rain = 0
KPPS 141225Z 05015KT 22/17 A302 RMK A01 T02160171  RH  080%=      5-min Rain = 0
KPPS 141230Z 05017KT 22/17 A302 RMK A01 T02170170  RH  079%=      5-min Rain = 0
KPPS 141235Z 05015G22KT 22/17 A3021 RMK A01 T02170170  RH  078%=      5-min Rain = 0
KPPS 141240Z 05013G20KT 22/17 A3021 RMK A01 T02170170  RH  079%=      5-min Rain = 0
KPPS 141245Z 05017G22KT 22/17 A3021 RMK A01 T02160170  RH  079%=      5-min Rain = 0
KPPS 141250Z 04015G20KT 22/17 A3022 RMK A01 T02160170  RH  079%=      5-min Rain = 0
KPPS 141255Z 04013G20KT 22/17 A3022 RMK A01 T02150171  RH  080%=      5-min Rain = 0
KPPS 141300Z 04013G18KT 22/17 A3022 RMK A01 T02160171  RH  080%=      5-min Rain = 0
KPPS 141305Z 04015G23KT 22/17 A3022 RMK A01 T02160171  RH  079%=      5-min Rain = 0
KPPS 141310Z 04014G20KT 22/17 A3023 RMK A01 T02150170  RH  079%=      5-min Rain = 0
KPPS 141315Z 04013G18KT 21/17 A3023 RMK A01 T02140170  RH  080%=      5-min Rain = 0
KPPS 141320Z 04015G25KT 21/17 A3024 RMK A01 T02140169  RH  079%=      5-min Rain = 0
KPPS 141325Z 03017G23KT 21/17 A3024 RMK A01 T02130166  RH  078%=      5-min Rain = 0
KPPS 141330Z 04016G24KT 21/16 A3025 RMK A01 T02130163  RH  077%=      5-min Rain = 0
KPPS 141335Z 04018G23KT 21/16 A3025 RMK A01 T02120160  RH  075%=      5-min Rain = 0
KPPS 141340Z 04016G23KT 21/16 A3026 RMK A01 T02110159  RH  076%=      5-min Rain = 0
KPPS 141345Z 04015G22KT 21/16 A3026 RMK A01 T02100157  RH  075%=      5-min Rain = 0
KPPS 141350Z 04017G23KT 21/16 A3027 RMK A01 T02100155  RH  074%=      5-min Rain = 0
KPPS 141355Z 05015G22KT 21/15 A3027 RMK A01 T02130154  RH  072%=      5-min Rain = 0
KPPS 141400Z 04014G20KT 22/15 A3027 RMK A01 T02150152  RH  070%=      5-min Rain = 0
KPPS 141405Z 04015G23KT 22/15 A3027 RMK A01 T02160150  RH  069%=      5-min Rain = 0
KPPS 141410Z 04018G24KT 22/15 A3027 RMK A01 T02200151  RH  068%=      5-min Rain = 0
KPPS 141415Z 04018G25KT 22/15 A3028 RMK A01 T02190151  RH  068%=      5-min Rain = 0
KPPS 141420Z 04018KT 22/15 A3028 RMK A01 T02210151  RH  068%=      5-min Rain = 0
KPPS 141425Z 05018G23KT 22/15 A3028 RMK A01 T02220152  RH  067%=      5-min Rain = 0
KPPS 141430Z 05016G21KT 22/15 A3028 RMK A01 T02220152  RH  067%=      5-min Rain = 0
KPPS 141435Z 05015G20KT 23/15 A3028 RMK A01 T02250152  RH  066%=      5-min Rain = 0
KPPS 141440Z 04015G21KT 23/15 A3028 RMK A01 T02280153  RH  065%=      5-min Rain = 0
KPPS 141445Z 04015G21KT 23/15 A3028 RMK A01 T02310152  RH  064%=      5-min Rain = 0
KPPS 141450Z 05015KT 23/15 A3028 RMK A01 T02330153  RH  064%=      5-min Rain = 0
KPPS 141455Z 05016G22KT 24/15 A3028 RMK A01 T02350154  RH  063%=      5-min Rain = 0
KPPS 141500Z 04016G21KT 24/15 A3028 RMK A01 T02350153  RH  063%=      5-min Rain = 0
KPPS 141505Z 05014KT 24/15 A3028 RMK A01 T02360154  RH  063%=      5-min Rain = 0
KPPS 141510Z 04015KT 23/15 A3028 RMK A01 T02340153  RH  063%=      5-min Rain = 0
KPPS 141515Z 04013KT 24/15 A3029 RMK A01 T02350153  RH  063%=      5-min Rain = 0
KPPS 141520Z 03013G18KT 24/15 A3029 RMK A01 T02380154  RH  062%=      5-min Rain = 0
KPPS 141525Z 04013G19KT 24/15 A3029 RMK A01 T02400154  RH  061%=      5-min Rain = 0
KPPS 141530Z 04014KT 25/16 A3029 RMK A01 T02450155  RH  060%=      5-min Rain = 0
KPPS 141535Z 01016G23KT 25/16 A3029 RMK A01 T02460156  RH  060%=      5-min Rain = 0
KPPS 141540Z 01017KT 25/16 A303 RMK A01 T02470156  RH  059%=      5-min Rain = 0
KPPS 141545Z 01014G20KT 25/16 A3029 RMK A01 T02470156  RH  059%=      5-min Rain = 0
KPPS 141550Z 02012G17KT 25/16 A3028 RMK A01 T02470155  RH  059%=      5-min Rain = 0
KPPS 141555Z 02012G18KT 25/16 A3028 RMK A01 T02520155  RH  057%=      5-min Rain = 0
KPPS 141600Z 02011KT 25/15 A3028 RMK A01 T02530153  RH  056%=      5-min Rain = 0
KPPS 141605Z 02013G19KT 25/15 A3028 RMK A01 T02540151  RH  056%=      5-min Rain = 0
KPPS 141610Z 02014G20KT 25/15 A3028 RMK A01 T02540149  RH  055%=      5-min Rain = 0
KPPS 141615Z 02011KT 26/15 A3027 RMK A01 T02560148  RH  054%=      5-min Rain = 0
KPPS 141620Z 02014G19KT 26/15 A3027 RMK A01 T02610147  RH  051%=      5-min Rain = 0
KPPS 141625Z 03012KT 26/15 A3026 RMK A01 T02630145  RH  050%=      5-min Rain = 0
KPPS 141630Z 04012G17KT 27/14 A3026 RMK A01 T02680143  RH  048%=      5-min Rain = 0
KPPS 141635Z 05014KT 27/14 A3025 RMK A01 T02740142  RH  046%=      5-min Rain = 0
KPPS 141640Z 07014G19KT 28/14 A3024 RMK A01 T02790141  RH  045%=      5-min Rain = 0
KPPS 141645Z 07014G20KT 29/14 A3023 RMK A01 T02850137  RH  042%=      5-min Rain = 0
KPPS 141650Z 07014G20KT 29/13 A3023 RMK A01 T02920133  RH  039%=      5-min Rain = 0
KPPS 141655Z 09016G21KT 30/13 A3022 RMK A01 T02960130  RH  037%=      5-min Rain = 0
KPPS 141700Z 09017G25KT 30/13 A3021 RMK A01 T03000126  RH  036%=      5-min Rain = 0
KPPS 141705Z 08018G25KT 30/12 A3021 RMK A01 T02970123  RH  036%=      5-min Rain = 0
KPPS 141710Z 08018G24KT 29/13 A3022 RMK A01 T02910125  RH  037%=      5-min Rain = 0
KPPS 141715Z 09016KT 29/12 A3022 RMK A01 T02920124  RH  037%=      5-min Rain = 0
KPPS 141720Z 08013KT 29/13 A3022 RMK A01 T02900128  RH  038%=      5-min Rain = 0
KPPS 141725Z 09013KT 30/13 A3021 RMK A01 T02980126  RH  036%=      5-min Rain = 0
KPPS 141730Z 09014G19KT 30/13 A3021 RMK A01 T02970128  RH  037%=      5-min Rain = 0
KPPS 141735Z 09013G18KT 31/13 A3022 RMK A01 T03080131  RH  035%=      5-min Rain = 0
KPPS 141740Z 10012G18KT 31/13 A3021 RMK A01 T03060131  RH  036%=      5-min Rain = 0
KPPS 141745Z 09012G18KT 31/13 A3021 RMK A01 T03060134  RH  037%=      5-min Rain = 0
KPPS 141750Z 08012G18KT 31/13 A3021 RMK A01 T03060130  RH  035%=      5-min Rain = 0
KPPS 141755Z 09011G18KT 31/13 A3021 RMK A01 T03130131  RH  034%=      5-min Rain = 0
KPPS 141800Z 10012KT 31/13 A3021 RMK A01 T03080131  RH  035%=      5-min Rain = 0
KPPS 141805Z 09011G17KT 31/13 A3021 RMK A01 T03090134  RH  036%=      5-min Rain = 0
KPPS 141810Z 08011G18KT 31/13 A3022 RMK A01 T03090134  RH  036%=      5-min Rain = 0
KPPS 141815Z 08012G21KT 31/13 A3022 RMK A01 T03140130  RH  034%=      5-min Rain = 0
KPPS 141820Z 09012G17KT 31/13 A3022 RMK A01 T03140129  RH  034%=      5-min Rain = 0
KPPS 141825Z 08013G18KT 32/13 A3022 RMK A01 T03170129  RH  033%=      5-min Rain = 0
KPPS 141830Z 08012KT 31/13 A3022 RMK A01 T03140130  RH  034%=      5-min Rain = 0
KPPS 141835Z 10011G17KT 32/13 A3021 RMK A01 T03150127  RH  033%=      5-min Rain = 0
KPPS 141840Z 08013G18KT 32/13 A3021 RMK A01 T03190130  RH  033%=      5-min Rain = 0
KPPS 141845Z 09012G17KT 32/13 A3021 RMK A01 T03190126  RH  032%=      5-min Rain = 0
KPPS 141850Z 09013G18KT 32/13 A3021 RMK A01 T03210126  RH  032%=      5-min Rain = 0
KPPS 141855Z 08010G16KT 32/13 A3021 RMK A01 T03220125  RH  031%=      5-min Rain = 0
KPPS 141900Z 07008G14KT 32/13 A3021 RMK A01 T03200125  RH  032%=      5-min Rain = 0
KPPS 141905Z 08009KT 32/13 A3021 RMK A01 T03220126  RH  032%=      5-min Rain = 0
KPPS 141910Z 09010G16KT 33/13 A3021 RMK A01 T03280126  RH  030%=      5-min Rain = 0
KPPS 141915Z 08010G16KT 33/12 A3021 RMK A01 T03310124  RH  029%=      5-min Rain = 0
KPPS 141920Z 07012G18KT 33/12 A3021 RMK A01 T03290120  RH  029%=      5-min Rain = 0
KPPS 141925Z 07009KT 33/12 A3021 RMK A01 T03260117  RH  029%=      5-min Rain = 0
KPPS 141930Z 07010KT 33/12 A3021 RMK A01 T03310117  RH  028%=      5-min Rain = 0
KPPS 141935Z 09009G14KT 33/12 A302 RMK A01 T03300116  RH  028%=      5-min Rain = 0
KPPS 141940Z 07010G16KT 33/12 A302 RMK A01 T03300120  RH  029%=      5-min Rain = 0
KPPS 141945Z 07010G17KT 33/12 A302 RMK A01 T03340116  RH  027%=      5-min Rain = 0
KPPS 141950Z 06009G14KT 34/11 A302 RMK A01 T03350110  RH  026%=      5-min Rain = 0
KPPS 141955Z 09011G16KT 33/11 A3019 RMK A01 T03340110  RH  026%=      5-min Rain = 0
KPPS 142000Z 08010G16KT 33/11 A3019 RMK A01 T03300112  RH  028%=      5-min Rain = 0
KPPS 142005Z 04009G16KT 33/10 A3019 RMK A01 T03340104  RH  025%=      5-min Rain = 0
KPPS 142010Z 06008G14KT 34/10 A3019 RMK A01 T03350102  RH  025%=      5-min Rain = 0
KPPS 142015Z 06012G18KT 34/09 A3018 RMK A01 T03400093  RH  023%=      5-min Rain = 0
KPPS 142020Z 08006G13KT 34/09 A3018 RMK A01 T03370094  RH  023%=      5-min Rain = 0
KPPS 142025Z 07012G17KT 34/10 A3018 RMK A01 T03370098  RH  024%=      5-min Rain = 0
KPPS 142030Z 07009G15KT 34/10 A3017 RMK A01 T03370099  RH  024%=      5-min Rain = 0
KPPS 142035Z 07013G19KT 34/10 A3017 RMK A01 T03410104  RH  024%=      5-min Rain = 0
KPPS 142040Z 08010G19KT 34/10 A3017 RMK A01 T03370103  RH  025%=      5-min Rain = 0
KPPS 142045Z 08014KT 34/10 A3016 RMK A01 T03370101  RH  024%=      5-min Rain = 0
KPPS 142050Z 09010G17KT 34/10 A3016 RMK A01 T03440103  RH  024%=      5-min Rain = 0
KPPS 142055Z 05011G18KT 34/10 A3016 RMK A01 T03410100  RH  024%=      5-min Rain = 0
KPPS 142100Z 01008G15KT 34/10 A3015 RMK A01 T03360100  RH  024%=      5-min Rain = 0
KPPS 142105Z 05009G14KT 34/10 A3015 RMK A01 T03370102  RH  025%=      5-min Rain = 0
KPPS 142110Z 08011G18KT 34/10 A3015 RMK A01 T03410103  RH  024%=      5-min Rain = 0
KPPS 142115Z 10006G11KT 34/10 A3015 RMK A01 T03370103  RH  025%=      5-min Rain = 0
KPPS 142120Z 06008G16KT 34/10 A3015 RMK A01 T03380100  RH  024%=      5-min Rain = 0
KPPS 142125Z 08009KT 34/10 A3014 RMK A01 T03380099  RH  024%=      5-min Rain = 0
KPPS 142130Z 09011KT 34/10 A3014 RMK A01 T03420102  RH  024%=      5-min Rain = 0
KPPS 142135Z 08006G13KT 34/10 A3014 RMK A01 T03370101  RH  024%=      5-min Rain = 0
KPPS 142140Z 10006G13KT 34/10 A3014 RMK A01 T03390100  RH  024%=      5-min Rain = 0
KPPS 142145Z 08011G17KT 34/10 A3014 RMK A01 T03410100  RH  024%=      5-min Rain = 0
KPPS 142150Z 08008G15KT 34/10 A3013 RMK A01 T03420099  RH  023%=      5-min Rain = 0
KPPS 142155Z 09009G15KT 34/10 A3013 RMK A01 T03390099  RH  024%=      5-min Rain = 0
KPPS 142200Z 08010G19KT 34/10 A3013 RMK A01 T03390099  RH  024%=      5-min Rain = 0
KPPS 142205Z 10007G14KT 34/10 A3013 RMK A01 T03400099  RH  024%=      5-min Rain = 0
KPPS 142210Z 11010KT 34/10 A3013 RMK A01 T03390099  RH  024%=      5-min Rain = 0
KPPS 142215Z 10010G16KT 34/10 A3013 RMK A01 T03410099  RH  024%=      5-min Rain = 0
KPPS 142220Z 11010G15KT 34/10 A3012 RMK A01 T03390098  RH  024%=      5-min Rain = 0
KPPS 142225Z 12010G17KT 34/10 A3012 RMK A01 T03400097  RH  023%=      5-min Rain = 0
KPPS 142230Z 11010G15KT 34/10 A3012 RMK A01 T03390097  RH  023%=      5-min Rain = 0
KPPS 142235Z 10009G14KT 34/10 A3012 RMK A01 T03400097  RH  023%=      5-min Rain = 0
KPPS 142240Z 08008G13KT 34/10 A3011 RMK A01 T03410097  RH  023%=      5-min Rain = 0
KPPS 142245Z 13008G13KT 34/10 A3011 RMK A01 T03410096  RH  023%=      5-min Rain = 0
KPPS 142250Z 13007KT 34/10 A3011 RMK A01 T03400096  RH  023%=      5-min Rain = 0
KPPS 142255Z 09009G14KT 34/10 A3011 RMK A01 T03430097  RH  023%=      5-min Rain = 0
KPPS 142300Z 11010KT 34/10 A3011 RMK A01 T03420096  RH  023%=      5-min Rain = 0
KPPS 142305Z 13009KT 34/10 A3011 RMK A01 T03390096  RH  023%=      5-min Rain = 0
KPPS 142310Z 11009KT 34/10 A3011 RMK A01 T03400095  RH  023%=      5-min Rain = 0
KPPS 142315Z 12009G17KT 34/10 A3011 RMK A01 T03400095  RH  023%=      5-min Rain = 0
KPPS 142320Z 10010KT 34/09 A3011 RMK A01 T03390094  RH  023%=      5-min Rain = 0
KPPS 142325Z 08006KT 34/09 A3011 RMK A01 T03370092  RH  023%=      5-min Rain = 0
KPPS 142330Z 12007G12KT 34/10 A3011 RMK A01 T03390095  RH  023%=      5-min Rain = 0
KPPS 142335Z 11009G16KT 34/10 A3011 RMK A01 T03390095  RH  023%=      5-min Rain = 0
KPPS 142340Z 08011KT 34/09 A3011 RMK A01 T03370094  RH  023%=      5-min Rain = 0
KPPS 142345Z 09010G15KT 34/09 A3011 RMK A01 T03380093  RH  023%=      5-min Rain = 0
KPPS 142350Z 09008KT 34/09 A3011 RMK A01 T03360091  RH  023%=      5-min Rain = 0
KPPS 142355Z 10009KT 34/09 A3011 RMK A01 T03360091  RH  023%=      5-min Rain = 0
KPPS 150000Z 11009G14KT 34/09 A3011 RMK A01 T03350090  RH  023%=      5-min Rain = 0
KPPS 150005Z 09008KT 34/09 A3011 RMK A01 T03350089  RH  023%=      5-min Rain = 0
KPPS 150010Z 09008KT 33/09 A3011 RMK A01 T03340088  RH  023%=      5-min Rain = 0
KPPS 150015Z 07007KT 33/09 A3011 RMK A01 T03330089  RH  023%=      5-min Rain = 0
KPPS 150020Z 10009G14KT 33/09 A3011 RMK A01 T03320090  RH  023%=      5-min Rain = 0
KPPS 150025Z 09010KT 33/09 A3011 RMK A01 T03260089  RH  024%=      5-min Rain = 0
KPPS 150030Z 08007KT 33/09 A3012 RMK A01 T03280090  RH  024%=      5-min Rain = 0
KPPS 150035Z 08008KT 33/09 A3012 RMK A01 T03290091  RH  024%=      5-min Rain = 0
KPPS 150040Z 08008KT 33/09 A3012 RMK A01 T03290093  RH  024%=      5-min Rain = 0
KPPS 150045Z 09009KT 33/10 A3012 RMK A01 T03280095  RH  025%=      5-min Rain = 0
KPPS 150050Z 10008KT 33/09 A3012 RMK A01 T03250094  RH  025%=      5-min Rain = 0
KPPS 150055Z 10009KT 32/10 A3012 RMK A01 T03220095  RH  026%=      5-min Rain = 0
KPPS 150100Z 10008KT 32/10 A3012 RMK A01 T03210095  RH  026%=      5-min Rain = 0
KPPS 150105Z 10008KT 32/10 A3012 RMK A01 T03200095  RH  026%=      5-min Rain = 0
KPPS 150110Z 10007KT 32/10 A3013 RMK A01 T03180095  RH  026%=      5-min Rain = 0
KPPS 150115Z 09007KT 32/10 A3013 RMK A01 T03150096  RH  027%=      5-min Rain = 0
KPPS 150120Z 10007KT 31/10 A3013 RMK A01 T03120097  RH  027%=      5-min Rain = 0
KPPS 150125Z 09007KT 31/10 A3013 RMK A01 T03080098  RH  028%=      5-min Rain = 0
KPPS 150130Z 09006KT 31/10 A3013 RMK A01 T03050098  RH  029%=      5-min Rain = 0
KPPS 150135Z 09006KT 30/10 A3013 RMK A01 T03010098  RH  029%=      5-min Rain = 0
KPPS 150140Z 08006KT 30/10 A3014 RMK A01 T02970098  RH  030%=      5-min Rain = 0
KPPS 150145Z 08006KT 29/10 A3014 RMK A01 T02910100  RH  032%=      5-min Rain = 0
KPPS 150150Z 08006KT 29/10 A3014 RMK A01 T02850101  RH  033%=      5-min Rain = 0
KPPS 150155Z 08006KT 28/10 A3015 RMK A01 T02810104  RH  034%=      5-min Rain = 0
KPPS 150200Z 08006KT 28/10 A3015 RMK A01 T02770104  RH  035%=      5-min Rain = 0
KPPS 150205Z 08006KT 27/10 A3015 RMK A01 T02740104  RH  036%=      5-min Rain = 0
KPPS 150210Z 08006KT 28/10 A3015 RMK A01 T02750103  RH  035%=      5-min Rain = 0
KPPS 150215Z 09007KT 27/10 A3016 RMK A01 T02740103  RH  035%=      5-min Rain = 0
KPPS 150220Z 09007KT 28/10 A3016 RMK A01 T02770104  RH  035%=      5-min Rain = 0
KPPS 150225Z 09007KT 28/10 A3016 RMK A01 T02810104  RH  034%=      5-min Rain = 0
KPPS 150230Z 09007KT 28/10 A3016 RMK A01 T02820104  RH  034%=      5-min Rain = 0
KPPS 150235Z 09007KT 28/10 A3016 RMK A01 T02810104  RH  034%=      5-min Rain = 0
KPPS 150240Z 09007KT 28/10 A3016 RMK A01 T02790103  RH  034%=      5-min Rain = 0
KPPS 150245Z 09007KT 28/10 A3016 RMK A01 T02830102  RH  033%=      5-min Rain = 0
KPPS 150250Z 09007KT 29/10 A3016 RMK A01 T02850102  RH  033%=      5-min Rain = 0
KPPS 150255Z 11007KT 28/10 A3016 RMK A01 T02780104  RH  035%=      5-min Rain = 0
KPPS 150300Z 10007KT 27/11 A3016 RMK A01 T02730106  RH  036%=      5-min Rain = 0
KPPS 150305Z 10007KT 27/11 A3016 RMK A01 T02730106  RH  036%=      5-min Rain = 0
KPPS 150310Z 10007KT 27/11 A3016 RMK A01 T02700107  RH  037%=      5-min Rain = 0
KPPS 150315Z 10008KT 27/11 A3017 RMK A01 T02730107  RH  037%=      5-min Rain = 0
KPPS 150320Z 10008KT 28/11 A3017 RMK A01 T02750107  RH  036%=      5-min Rain = 0
KPPS 150325Z 10008KT 28/11 A3017 RMK A01 T02750106  RH  036%=      5-min Rain = 0
KPPS 150330Z 10007KT 27/11 A3018 RMK A01 T02720107  RH  037%=      5-min Rain = 0
KPPS 150335Z 10007KT 27/11 A3018 RMK A01 T02690107  RH  038%=      5-min Rain = 0
KPPS 150340Z 09007KT 27/11 A3018 RMK A01 T02680107  RH  038%=      5-min Rain = 0
KPPS 150345Z 09007KT 27/11 A3018 RMK A01 T02700106  RH  037%=      5-min Rain = 0
KPPS 150350Z 09008KT 27/11 A3018 RMK A01 T02710107  RH  037%=      5-min Rain = 0
KPPS 150355Z 09008KT 27/11 A3018 RMK A01 T02720109  RH  037%=      5-min Rain = 0
KPPS 150400Z 10008KT 27/11 A3018 RMK A01 T02740110  RH  037%=      5-min Rain = 0
KPPS 150405Z 10009KT 27/11 A3018 RMK A01 T02730111  RH  038%=      5-min Rain = 0
KPPS 150410Z 09009KT 27/11 A3018 RMK A01 T02700112  RH  039%=      5-min Rain = 0
KPPS 150415Z 09008KT 27/11 A3018 RMK A01 T02680113  RH  039%=      5-min Rain = 0
KPPS 150420Z 09008KT 27/12 A3018 RMK A01 T02660115  RH  041%=      5-min Rain = 0
KPPS 150425Z 09009KT 27/12 A3018 RMK A01 T02660117  RH  041%=      5-min Rain = 0
KPPS 150430Z 10009KT 27/12 A3018 RMK A01 T02660119  RH  041%=      5-min Rain = 0
KPPS 150435Z 10008KT 26/12 A3018 RMK A01 T02620120  RH  043%=      5-min Rain = 0
KPPS 150440Z 10008KT 26/12 A3018 RMK A01 T02600121  RH  044%=      5-min Rain = 0
KPPS 150445Z 11008KT 26/12 A3018 RMK A01 T02600123  RH  044%=      5-min Rain = 0
KPPS 150450Z 12008KT 26/13 A3019 RMK A01 T02610126  RH  045%=      5-min Rain = 0
KPPS 150455Z 12009KT 26/13 A3019 RMK A01 T02630128  RH  045%=      5-min Rain = 0

Page generated in 0.0139 seconds.